sensor_id;sensor_type;location;lat;lon;timestamp;P1;durP1;ratioP1;P2;durP2;ratioP2
55063;SDS011;40963;52.168;21.296;2023-05-10T00:00:36;8.73;;;5.05;;
55063;SDS011;40963;52.168;21.296;2023-05-10T00:03:02;11.93;;;5.88;;
55063;SDS011;40963;52.168;21.296;2023-05-10T00:05:29;9.88;;;4.85;;
55063;SDS011;40963;52.168;21.296;2023-05-10T00:07:56;11.48;;;5.28;;
55063;SDS011;40963;52.168;21.296;2023-05-10T00:10:21;12.75;;;5.60;;
55063;SDS011;40963;52.168;21.296;2023-05-10T00:12:47;10.68;;;5.90;;
55063;SDS011;40963;52.168;21.296;2023-05-10T00:15:13;10.88;;;5.65;;
55063;SDS011;40963;52.168;21.296;2023-05-10T00:17:38;14.73;;;4.85;;
55063;SDS011;40963;52.168;21.296;2023-05-10T00:20:04;11.32;;;4.60;;
55063;SDS011;40963;52.168;21.296;2023-05-10T00:22:31;13.98;;;5.57;;
55063;SDS011;40963;52.168;21.296;2023-05-10T00:24:57;6.45;;;4.20;;
55063;SDS011;40963;52.168;21.296;2023-05-10T00:27:23;7.95;;;4.78;;
55063;SDS011;40963;52.168;21.296;2023-05-10T00:29:48;12.38;;;4.97;;
55063;SDS011;40963;52.168;21.296;2023-05-10T00:32:14;10.77;;;5.30;;
55063;SDS011;40963;52.168;21.296;2023-05-10T00:34:40;12.10;;;4.93;;
55063;SDS011;40963;52.168;21.296;2023-05-10T00:37:05;13.13;;;5.65;;
55063;SDS011;40963;52.168;21.296;2023-05-10T00:39:31;9.02;;;4.82;;
55063;SDS011;40963;52.168;21.296;2023-05-10T00:41:56;8.30;;;4.95;;
55063;SDS011;40963;52.168;21.296;2023-05-10T00:44:22;11.00;;;4.47;;
55063;SDS011;40963;52.168;21.296;2023-05-10T00:46:48;14.07;;;4.65;;
55063;SDS011;40963;52.168;21.296;2023-05-10T00:49:14;15.02;;;5.30;;
55063;SDS011;40963;52.168;21.296;2023-05-10T00:51:40;9.70;;;5.28;;
55063;SDS011;40963;52.168;21.296;2023-05-10T00:54:07;9.80;;;5.05;;
55063;SDS011;40963;52.168;21.296;2023-05-10T00:56:34;9.70;;;4.53;;
55063;SDS011;40963;52.168;21.296;2023-05-10T00:59:01;9.25;;;4.85;;
55063;SDS011;40963;52.168;21.296;2023-05-10T01:01:27;17.80;;;5.55;;
55063;SDS011;40963;52.168;21.296;2023-05-10T01:03:54;10.70;;;5.18;;
55063;SDS011;40963;52.168;21.296;2023-05-10T01:06:20;8.77;;;5.10;;
55063;SDS011;40963;52.168;21.296;2023-05-10T01:08:45;11.80;;;4.85;;
55063;SDS011;40963;52.168;21.296;2023-05-10T01:11:12;9.40;;;4.78;;
55063;SDS011;40963;52.168;21.296;2023-05-10T01:13:38;9.23;;;4.60;;
55063;SDS011;40963;52.168;21.296;2023-05-10T01:16:07;9.68;;;4.47;;
55063;SDS011;40963;52.168;21.296;2023-05-10T01:18:33;7.78;;;4.97;;
55063;SDS011;40963;52.168;21.296;2023-05-10T01:21:15;7.60;;;4.50;;
55063;SDS011;40963;52.168;21.296;2023-05-10T01:32:21;8.25;;;4.35;;
55063;SDS011;40963;52.168;21.296;2023-05-10T01:35:07;8.88;;;4.15;;
55063;SDS011;40963;52.168;21.296;2023-05-10T01:37:50;7.50;;;4.55;;
55063;SDS011;40963;52.168;21.296;2023-05-10T01:43:28;9.07;;;4.10;;
55063;SDS011;40963;52.168;21.296;2023-05-10T01:46:02;19.63;;;5.25;;
55063;SDS011;40963;52.168;21.296;2023-05-10T01:48:36;6.95;;;4.40;;
55063;SDS011;40963;52.168;21.296;2023-05-10T01:51:04;10.00;;;4.70;;
55063;SDS011;40963;52.168;21.296;2023-05-10T01:53:31;18.95;;;4.43;;
55063;SDS011;40963;52.168;21.296;2023-05-10T01:56:02;10.90;;;4.82;;
55063;SDS011;40963;52.168;21.296;2023-05-10T01:58:29;6.40;;;4.10;;
55063;SDS011;40963;52.168;21.296;2023-05-10T02:00:58;7.35;;;4.03;;
55063;SDS011;40963;52.168;21.296;2023-05-10T02:03:26;6.90;;;4.45;;
55063;SDS011;40963;52.168;21.296;2023-05-10T02:05:54;6.22;;;3.95;;
55063;SDS011;40963;52.168;21.296;2023-05-10T02:08:22;12.13;;;4.97;;
55063;SDS011;40963;52.168;21.296;2023-05-10T02:10:49;12.25;;;4.97;;
55063;SDS011;40963;52.168;21.296;2023-05-10T02:13:17;7.22;;;4.55;;
55063;SDS011;40963;52.168;21.296;2023-05-10T02:15:45;7.05;;;4.63;;
55063;SDS011;40963;52.168;21.296;2023-05-10T02:18:12;8.30;;;4.68;;
55063;SDS011;40963;52.168;21.296;2023-05-10T02:20:40;13.38;;;4.75;;
55063;SDS011;40963;52.168;21.296;2023-05-10T02:23:06;7.78;;;4.45;;
55063;SDS011;40963;52.168;21.296;2023-05-10T02:25:34;9.63;;;3.97;;
55063;SDS011;40963;52.168;21.296;2023-05-10T02:28:01;11.95;;;4.72;;
55063;SDS011;40963;52.168;21.296;2023-05-10T02:30:28;8.90;;;4.53;;
55063;SDS011;40963;52.168;21.296;2023-05-10T02:32:56;9.75;;;4.93;;
55063;SDS011;40963;52.168;21.296;2023-05-10T02:35:22;7.88;;;4.38;;
55063;SDS011;40963;52.168;21.296;2023-05-10T02:37:48;13.48;;;4.65;;
55063;SDS011;40963;52.168;21.296;2023-05-10T02:40:16;8.23;;;4.32;;
55063;SDS011;40963;52.168;21.296;2023-05-10T02:42:43;7.38;;;3.83;;
55063;SDS011;40963;52.168;21.296;2023-05-10T02:45:11;8.10;;;4.63;;
55063;SDS011;40963;52.168;21.296;2023-05-10T02:47:39;15.07;;;4.60;;
55063;SDS011;40963;52.168;21.296;2023-05-10T02:50:05;8.77;;;4.53;;
55063;SDS011;40963;52.168;21.296;2023-05-10T02:52:36;8.02;;;4.50;;
55063;SDS011;40963;52.168;21.296;2023-05-10T02:55:07;8.10;;;4.53;;
55063;SDS011;40963;52.168;21.296;2023-05-10T02:57:38;6.63;;;4.00;;
55063;SDS011;40963;52.168;21.296;2023-05-10T03:00:08;6.53;;;4.00;;
55063;SDS011;40963;52.168;21.296;2023-05-10T03:02:33;8.38;;;4.72;;
55063;SDS011;40963;52.168;21.296;2023-05-10T03:04:59;7.63;;;4.40;;
55063;SDS011;40963;52.168;21.296;2023-05-10T03:07:25;11.63;;;4.82;;
55063;SDS011;40963;52.168;21.296;2023-05-10T03:09:50;11.40;;;4.60;;
55063;SDS011;40963;52.168;21.296;2023-05-10T03:17:56;9.57;;;4.63;;
55063;SDS011;40963;52.168;21.296;2023-05-10T03:20:29;10.35;;;4.72;;
55063;SDS011;40963;52.168;21.296;2023-05-10T03:23:01;10.30;;;4.35;;
55063;SDS011;40963;52.168;21.296;2023-05-10T03:25:31;7.70;;;4.43;;
55063;SDS011;40963;52.168;21.296;2023-05-10T03:27:57;8.52;;;3.92;;
55063;SDS011;40963;52.168;21.296;2023-05-10T03:30:23;6.22;;;3.95;;
55063;SDS011;40963;52.168;21.296;2023-05-10T03:32:49;10.32;;;4.50;;
55063;SDS011;40963;52.168;21.296;2023-05-10T03:35:15;7.03;;;4.50;;
55063;SDS011;40963;52.168;21.296;2023-05-10T03:37:41;16.17;;;5.10;;
55063;SDS011;40963;52.168;21.296;2023-05-10T03:40:07;10.07;;;4.28;;
55063;SDS011;40963;52.168;21.296;2023-05-10T03:42:33;11.02;;;4.32;;
55063;SDS011;40963;52.168;21.296;2023-05-10T03:44:59;9.27;;;4.72;;
55063;SDS011;40963;52.168;21.296;2023-05-10T03:47:25;5.72;;;3.50;;
55063;SDS011;40963;52.168;21.296;2023-05-10T03:49:50;8.10;;;4.07;;
55063;SDS011;40963;52.168;21.296;2023-05-10T03:52:16;5.95;;;4.13;;
55063;SDS011;40963;52.168;21.296;2023-05-10T03:54:43;8.07;;;3.55;;
55063;SDS011;40963;52.168;21.296;2023-05-10T03:57:08;6.18;;;3.65;;
55063;SDS011;40963;52.168;21.296;2023-05-10T03:59:34;5.93;;;3.78;;
55063;SDS011;40963;52.168;21.296;2023-05-10T04:02:00;5.13;;;3.92;;
55063;SDS011;40963;52.168;21.296;2023-05-10T04:04:25;8.75;;;3.92;;
55063;SDS011;40963;52.168;21.296;2023-05-10T04:06:51;8.45;;;4.60;;
55063;SDS011;40963;52.168;21.296;2023-05-10T04:09:17;11.43;;;4.47;;
55063;SDS011;40963;52.168;21.296;2023-05-10T04:11:42;6.55;;;3.88;;
55063;SDS011;40963;52.168;21.296;2023-05-10T04:14:08;6.70;;;4.40;;
55063;SDS011;40963;52.168;21.296;2023-05-10T04:16:34;6.85;;;3.70;;
55063;SDS011;40963;52.168;21.296;2023-05-10T04:18:59;11.88;;;4.15;;
55063;SDS011;40963;52.168;21.296;2023-05-10T04:21:25;19.25;;;4.63;;
55063;SDS011;40963;52.168;21.296;2023-05-10T04:23:50;10.77;;;4.35;;
55063;SDS011;40963;52.168;21.296;2023-05-10T04:26:16;8.43;;;4.47;;
55063;SDS011;40963;52.168;21.296;2023-05-10T04:28:42;10.57;;;5.35;;
55063;SDS011;40963;52.168;21.296;2023-05-10T04:31:08;16.65;;;7.90;;
55063;SDS011;40963;52.168;21.296;2023-05-10T04:33:34;15.38;;;6.57;;
55063;SDS011;40963;52.168;21.296;2023-05-10T04:36:00;7.40;;;4.63;;
55063;SDS011;40963;52.168;21.296;2023-05-10T04:38:27;13.77;;;4.43;;
55063;SDS011;40963;52.168;21.296;2023-05-10T04:40:53;10.25;;;4.13;;
55063;SDS011;40963;52.168;21.296;2023-05-10T04:43:18;6.65;;;3.97;;
55063;SDS011;40963;52.168;21.296;2023-05-10T04:45:45;8.02;;;4.22;;
55063;SDS011;40963;52.168;21.296;2023-05-10T04:48:10;7.72;;;4.38;;
55063;SDS011;40963;52.168;21.296;2023-05-10T04:50:36;7.13;;;3.97;;
55063;SDS011;40963;52.168;21.296;2023-05-10T04:53:02;11.63;;;4.30;;
55063;SDS011;40963;52.168;21.296;2023-05-10T04:55:27;6.35;;;3.85;;
55063;SDS011;40963;52.168;21.296;2023-05-10T04:57:53;9.38;;;4.22;;
55063;SDS011;40963;52.168;21.296;2023-05-10T05:00:21;7.78;;;3.95;;
55063;SDS011;40963;52.168;21.296;2023-05-10T05:02:47;7.55;;;3.97;;
55063;SDS011;40963;52.168;21.296;2023-05-10T05:05:12;6.22;;;3.80;;
55063;SDS011;40963;52.168;21.296;2023-05-10T05:07:38;7.70;;;3.55;;
55063;SDS011;40963;52.168;21.296;2023-05-10T05:10:07;8.13;;;4.10;;
55063;SDS011;40963;52.168;21.296;2023-05-10T05:12:33;8.82;;;3.63;;
55063;SDS011;40963;52.168;21.296;2023-05-10T05:14:59;7.50;;;3.78;;
55063;SDS011;40963;52.168;21.296;2023-05-10T05:17:25;14.45;;;3.85;;
55063;SDS011;40963;52.168;21.296;2023-05-10T05:19:51;7.95;;;3.50;;
55063;SDS011;40963;52.168;21.296;2023-05-10T05:22:17;11.32;;;4.28;;
55063;SDS011;40963;52.168;21.296;2023-05-10T05:24:44;17.92;;;5.47;;
55063;SDS011;40963;52.168;21.296;2023-05-10T05:27:10;15.40;;;5.80;;
55063;SDS011;40963;52.168;21.296;2023-05-10T05:29:35;14.35;;;5.93;;
55063;SDS011;40963;52.168;21.296;2023-05-10T05:32:01;12.20;;;4.82;;
55063;SDS011;40963;52.168;21.296;2023-05-10T05:34:26;10.38;;;4.68;;
55063;SDS011;40963;52.168;21.296;2023-05-10T05:36:52;8.10;;;4.40;;
55063;SDS011;40963;52.168;21.296;2023-05-10T05:39:18;8.43;;;3.65;;
55063;SDS011;40963;52.168;21.296;2023-05-10T05:41:44;11.93;;;3.40;;
55063;SDS011;40963;52.168;21.296;2023-05-10T05:44:09;6.85;;;3.22;;
55063;SDS011;40963;52.168;21.296;2023-05-10T05:46:35;9.02;;;3.20;;
55063;SDS011;40963;52.168;21.296;2023-05-10T05:49:01;14.82;;;3.65;;
55063;SDS011;40963;52.168;21.296;2023-05-10T05:51:27;7.03;;;2.88;;
55063;SDS011;40963;52.168;21.296;2023-05-10T05:53:52;13.85;;;3.45;;
55063;SDS011;40963;52.168;21.296;2023-05-10T05:56:18;5.28;;;2.83;;
55063;SDS011;40963;52.168;21.296;2023-05-10T05:58:49;14.48;;;3.38;;
55063;SDS011;40963;52.168;21.296;2023-05-10T06:01:17;22.23;;;3.55;;
55063;SDS011;40963;52.168;21.296;2023-05-10T06:03:43;6.82;;;3.20;;
55063;SDS011;40963;52.168;21.296;2023-05-10T06:06:09;8.10;;;2.80;;
55063;SDS011;40963;52.168;21.296;2023-05-10T06:08:34;13.45;;;3.00;;
55063;SDS011;40963;52.168;21.296;2023-05-10T06:11:00;6.70;;;3.03;;
55063;SDS011;40963;52.168;21.296;2023-05-10T06:13:26;6.18;;;2.60;;
55063;SDS011;40963;52.168;21.296;2023-05-10T06:15:57;4.28;;;2.85;;
55063;SDS011;40963;52.168;21.296;2023-05-10T06:18:23;9.50;;;3.15;;
55063;SDS011;40963;52.168;21.296;2023-05-10T06:20:49;7.78;;;2.80;;
55063;SDS011;40963;52.168;21.296;2023-05-10T06:23:15;5.00;;;2.40;;
55063;SDS011;40963;52.168;21.296;2023-05-10T06:25:40;4.43;;;2.50;;
55063;SDS011;40963;52.168;21.296;2023-05-10T06:28:06;5.50;;;2.58;;
55063;SDS011;40963;52.168;21.296;2023-05-10T06:30:31;9.32;;;2.80;;
55063;SDS011;40963;52.168;21.296;2023-05-10T06:32:57;8.93;;;2.40;;
55063;SDS011;40963;52.168;21.296;2023-05-10T06:35:22;6.82;;;2.65;;
55063;SDS011;40963;52.168;21.296;2023-05-10T06:37:48;10.68;;;2.85;;
55063;SDS011;40963;52.168;21.296;2023-05-10T06:40:14;9.25;;;2.50;;
55063;SDS011;40963;52.168;21.296;2023-05-10T06:42:40;4.43;;;2.35;;
55063;SDS011;40963;52.168;21.296;2023-05-10T06:45:06;4.03;;;2.28;;
55063;SDS011;40963;52.168;21.296;2023-05-10T06:47:33;9.45;;;2.80;;
55063;SDS011;40963;52.168;21.296;2023-05-10T06:49:59;6.75;;;2.72;;
55063;SDS011;40963;52.168;21.296;2023-05-10T06:52:24;14.18;;;2.75;;
55063;SDS011;40963;52.168;21.296;2023-05-10T06:54:50;4.13;;;2.58;;
55063;SDS011;40963;52.168;21.296;2023-05-10T06:57:15;5.60;;;2.67;;
55063;SDS011;40963;52.168;21.296;2023-05-10T06:59:42;3.72;;;2.30;;
55063;SDS011;40963;52.168;21.296;2023-05-10T07:02:08;7.57;;;2.40;;
55063;SDS011;40963;52.168;21.296;2023-05-10T07:04:34;5.55;;;2.33;;
55063;SDS011;40963;52.168;21.296;2023-05-10T07:06:59;10.60;;;2.85;;
55063;SDS011;40963;52.168;21.296;2023-05-10T07:09:25;6.38;;;2.25;;
55063;SDS011;40963;52.168;21.296;2023-05-10T07:11:52;3.60;;;2.33;;
55063;SDS011;40963;52.168;21.296;2023-05-10T07:14:17;7.07;;;2.65;;
55063;SDS011;40963;52.168;21.296;2023-05-10T07:16:43;4.93;;;2.70;;
55063;SDS011;40963;52.168;21.296;2023-05-10T07:19:09;6.70;;;2.38;;
55063;SDS011;40963;52.168;21.296;2023-05-10T07:21:35;5.63;;;2.30;;
55063;SDS011;40963;52.168;21.296;2023-05-10T07:24:01;4.30;;;2.33;;
55063;SDS011;40963;52.168;21.296;2023-05-10T07:26:26;6.32;;;2.50;;
55063;SDS011;40963;52.168;21.296;2023-05-10T07:28:52;7.57;;;2.15;;
55063;SDS011;40963;52.168;21.296;2023-05-10T07:31:18;2.92;;;2.00;;
55063;SDS011;40963;52.168;21.296;2023-05-10T07:33:43;5.53;;;2.08;;
55063;SDS011;40963;52.168;21.296;2023-05-10T07:36:09;5.32;;;2.33;;
55063;SDS011;40963;52.168;21.296;2023-05-10T07:38:34;3.45;;;1.88;;
55063;SDS011;40963;52.168;21.296;2023-05-10T07:41:00;4.22;;;2.20;;
55063;SDS011;40963;52.168;21.296;2023-05-10T07:43:26;3.75;;;1.98;;
55063;SDS011;40963;52.168;21.296;2023-05-10T07:45:52;5.75;;;2.28;;
55063;SDS011;40963;52.168;21.296;2023-05-10T07:48:17;4.18;;;2.17;;
55063;SDS011;40963;52.168;21.296;2023-05-10T07:50:43;2.42;;;1.80;;
55063;SDS011;40963;52.168;21.296;2023-05-10T07:53:09;3.55;;;1.75;;
55063;SDS011;40963;52.168;21.296;2023-05-10T07:55:34;9.82;;;2.35;;
55063;SDS011;40963;52.168;21.296;2023-05-10T07:58:00;4.70;;;1.83;;
55063;SDS011;40963;52.168;21.296;2023-05-10T08:00:26;2.67;;;1.90;;
55063;SDS011;40963;52.168;21.296;2023-05-10T08:02:51;17.15;;;2.20;;
55063;SDS011;40963;52.168;21.296;2023-05-10T08:05:17;1.92;;;1.73;;
55063;SDS011;40963;52.168;21.296;2023-05-10T08:07:43;7.38;;;2.13;;
55063;SDS011;40963;52.168;21.296;2023-05-10T08:10:09;3.53;;;2.22;;
55063;SDS011;40963;52.168;21.296;2023-05-10T08:12:36;3.85;;;1.85;;
55063;SDS011;40963;52.168;21.296;2023-05-10T08:15:02;15.43;;;2.03;;
55063;SDS011;40963;52.168;21.296;2023-05-10T08:17:28;2.22;;;1.80;;
55063;SDS011;40963;52.168;21.296;2023-05-10T08:19:54;3.78;;;2.13;;
55063;SDS011;40963;52.168;21.296;2023-05-10T08:22:20;4.40;;;2.08;;
55063;SDS011;40963;52.168;21.296;2023-05-10T08:24:45;3.10;;;1.50;;
55063;SDS011;40963;52.168;21.296;2023-05-10T08:27:11;4.45;;;2.15;;
55063;SDS011;40963;52.168;21.296;2023-05-10T08:29:37;3.53;;;2.13;;
55063;SDS011;40963;52.168;21.296;2023-05-10T08:32:02;4.95;;;1.85;;
55063;SDS011;40963;52.168;21.296;2023-05-10T08:34:28;6.07;;;1.90;;
55063;SDS011;40963;52.168;21.296;2023-05-10T08:36:55;5.82;;;1.75;;
55063;SDS011;40963;52.168;21.296;2023-05-10T08:39:21;3.72;;;2.25;;
55063;SDS011;40963;52.168;21.296;2023-05-10T08:41:48;4.72;;;2.10;;
55063;SDS011;40963;52.168;21.296;2023-05-10T08:44:18;4.40;;;2.10;;
55063;SDS011;40963;52.168;21.296;2023-05-10T08:46:45;4.32;;;1.95;;
55063;SDS011;40963;52.168;21.296;2023-05-10T08:49:16;4.65;;;1.85;;
55063;SDS011;40963;52.168;21.296;2023-05-10T08:51:45;2.17;;;1.60;;
55063;SDS011;40963;52.168;21.296;2023-05-10T08:54:15;5.32;;;2.10;;
55063;SDS011;40963;52.168;21.296;2023-05-10T08:56:41;5.20;;;1.85;;
55063;SDS011;40963;52.168;21.296;2023-05-10T08:59:07;9.63;;;2.13;;
55063;SDS011;40963;52.168;21.296;2023-05-10T09:01:32;2.08;;;1.75;;
55063;SDS011;40963;52.168;21.296;2023-05-10T09:04:00;3.22;;;2.17;;
55063;SDS011;40963;52.168;21.296;2023-05-10T09:06:26;3.65;;;1.75;;
55063;SDS011;40963;52.168;21.296;2023-05-10T09:08:52;2.55;;;2.00;;
55063;SDS011;40963;52.168;21.296;2023-05-10T09:11:17;3.90;;;1.80;;
55063;SDS011;40963;52.168;21.296;2023-05-10T09:13:45;3.90;;;1.70;;
55063;SDS011;40963;52.168;21.296;2023-05-10T09:16:13;6.25;;;1.80;;
55063;SDS011;40963;52.168;21.296;2023-05-10T09:18:38;2.50;;;2.00;;
55063;SDS011;40963;52.168;21.296;2023-05-10T09:21:04;2.80;;;2.05;;
55063;SDS011;40963;52.168;21.296;2023-05-10T09:23:29;4.68;;;2.10;;
55063;SDS011;40963;52.168;21.296;2023-05-10T09:26:03;6.75;;;1.95;;
55063;SDS011;40963;52.168;21.296;2023-05-10T09:28:33;3.92;;;1.52;;
55063;SDS011;40963;52.168;21.296;2023-05-10T09:30:59;4.75;;;1.90;;
55063;SDS011;40963;52.168;21.296;2023-05-10T09:33:25;5.45;;;1.92;;
55063;SDS011;40963;52.168;21.296;2023-05-10T09:35:51;5.63;;;1.75;;
55063;SDS011;40963;52.168;21.296;2023-05-10T09:38:17;3.03;;;1.75;;
55063;SDS011;40963;52.168;21.296;2023-05-10T09:40:43;7.90;;;1.80;;
55063;SDS011;40963;52.168;21.296;2023-05-10T09:43:19;4.82;;;1.90;;
55063;SDS011;40963;52.168;21.296;2023-05-10T09:45:45;7.15;;;2.10;;
55063;SDS011;40963;52.168;21.296;2023-05-10T09:48:14;4.93;;;1.92;;
55063;SDS011;40963;52.168;21.296;2023-05-10T09:50:40;9.70;;;2.10;;
55063;SDS011;40963;52.168;21.296;2023-05-10T09:53:06;6.30;;;2.35;;
55063;SDS011;40963;52.168;21.296;2023-05-10T09:58:05;11.02;;;2.10;;
55063;SDS011;40963;52.168;21.296;2023-05-10T10:00:38;7.00;;;2.08;;
55063;SDS011;40963;52.168;21.296;2023-05-10T10:03:15;4.47;;;1.80;;
55063;SDS011;40963;52.168;21.296;2023-05-10T10:05:42;3.08;;;1.85;;
55063;SDS011;40963;52.168;21.296;2023-05-10T10:08:09;9.25;;;2.03;;
55063;SDS011;40963;52.168;21.296;2023-05-10T10:10:37;4.00;;;2.00;;
55063;SDS011;40963;52.168;21.296;2023-05-10T10:13:06;5.38;;;2.13;;
55063;SDS011;40963;52.168;21.296;2023-05-10T10:15:33;4.85;;;2.13;;
55063;SDS011;40963;52.168;21.296;2023-05-10T10:17:59;7.68;;;2.08;;
55063;SDS011;40963;52.168;21.296;2023-05-10T10:20:25;7.72;;;2.60;;
55063;SDS011;40963;52.168;21.296;2023-05-10T10:22:51;5.05;;;2.00;;
55063;SDS011;40963;52.168;21.296;2023-05-10T10:25:17;5.70;;;1.75;;
55063;SDS011;40963;52.168;21.296;2023-05-10T10:30:13;6.80;;;1.88;;
55063;SDS011;40963;52.168;21.296;2023-05-10T10:35:27;14.50;;;2.47;;
55063;SDS011;40963;52.168;21.296;2023-05-10T10:37:56;5.22;;;2.05;;
55063;SDS011;40963;52.168;21.296;2023-05-10T10:40:23;11.35;;;2.05;;
55063;SDS011;40963;52.168;21.296;2023-05-10T10:42:50;5.63;;;1.98;;
55063;SDS011;40963;52.168;21.296;2023-05-10T10:45:15;5.35;;;2.35;;
55063;SDS011;40963;52.168;21.296;2023-05-10T10:47:41;4.93;;;2.30;;
55063;SDS011;40963;52.168;21.296;2023-05-10T10:50:08;2.88;;;1.73;;
55063;SDS011;40963;52.168;21.296;2023-05-10T10:55:08;7.40;;;2.22;;
55063;SDS011;40963;52.168;21.296;2023-05-10T10:57:48;9.38;;;2.33;;
55063;SDS011;40963;52.168;21.296;2023-05-10T11:02:56;4.70;;;2.10;;
55063;SDS011;40963;52.168;21.296;2023-05-10T11:05:46;6.63;;;2.25;;
55063;SDS011;40963;52.168;21.296;2023-05-10T11:15:59;2.95;;;1.98;;
55063;SDS011;40963;52.168;21.296;2023-05-10T11:18:36;7.05;;;1.80;;
55063;SDS011;40963;52.168;21.296;2023-05-10T11:21:02;6.65;;;1.95;;
55063;SDS011;40963;52.168;21.296;2023-05-10T11:23:49;5.30;;;1.90;;
55063;SDS011;40963;52.168;21.296;2023-05-10T11:26:16;2.17;;;1.75;;
55063;SDS011;40963;52.168;21.296;2023-05-10T11:28:47;7.97;;;1.65;;
55063;SDS011;40963;52.168;21.296;2023-05-10T11:31:17;4.55;;;2.05;;
55063;SDS011;40963;52.168;21.296;2023-05-10T11:33:44;8.00;;;1.90;;
55063;SDS011;40963;52.168;21.296;2023-05-10T11:36:14;8.75;;;2.00;;
55063;SDS011;40963;52.168;21.296;2023-05-10T11:38:41;10.40;;;3.63;;
55063;SDS011;40963;52.168;21.296;2023-05-10T11:41:10;5.30;;;1.90;;
55063;SDS011;40963;52.168;21.296;2023-05-10T11:43:38;5.70;;;1.95;;
55063;SDS011;40963;52.168;21.296;2023-05-10T11:46:05;5.55;;;1.83;;
55063;SDS011;40963;52.168;21.296;2023-05-10T11:48:31;3.78;;;2.22;;
55063;SDS011;40963;52.168;21.296;2023-05-10T11:50:57;4.05;;;1.80;;
55063;SDS011;40963;52.168;21.296;2023-05-10T11:53:24;5.97;;;2.25;;
55063;SDS011;40963;52.168;21.296;2023-05-10T11:55:51;4.88;;;2.30;;
55063;SDS011;40963;52.168;21.296;2023-05-10T11:58:17;5.28;;;2.10;;
55063;SDS011;40963;52.168;21.296;2023-05-10T12:00:43;3.53;;;1.92;;
55063;SDS011;40963;52.168;21.296;2023-05-10T12:03:10;13.80;;;2.50;;
55063;SDS011;40963;52.168;21.296;2023-05-10T12:05:36;4.53;;;2.47;;
55063;SDS011;40963;52.168;21.296;2023-05-10T12:08:14;3.35;;;1.80;;
55063;SDS011;40963;52.168;21.296;2023-05-10T12:10:41;21.20;;;2.50;;
55063;SDS011;40963;52.168;21.296;2023-05-10T12:13:13;5.30;;;2.10;;
55063;SDS011;40963;52.168;21.296;2023-05-10T12:15:40;8.07;;;1.92;;
55063;SDS011;40963;52.168;21.296;2023-05-10T12:18:08;6.70;;;2.28;;
55063;SDS011;40963;52.168;21.296;2023-05-10T12:20:35;7.78;;;1.80;;
55063;SDS011;40963;52.168;21.296;2023-05-10T12:23:01;4.93;;;1.70;;
55063;SDS011;40963;52.168;21.296;2023-05-10T12:25:35;6.28;;;1.73;;
55063;SDS011;40963;52.168;21.296;2023-05-10T12:28:05;5.80;;;2.15;;
55063;SDS011;40963;52.168;21.296;2023-05-10T12:30:33;13.57;;;2.35;;
55063;SDS011;40963;52.168;21.296;2023-05-10T12:33:01;6.38;;;1.92;;
55063;SDS011;40963;52.168;21.296;2023-05-10T12:35:48;6.63;;;2.22;;
55063;SDS011;40963;52.168;21.296;2023-05-10T12:41:00;3.60;;;1.83;;
55063;SDS011;40963;52.168;21.296;2023-05-10T12:43:28;3.67;;;2.20;;
55063;SDS011;40963;52.168;21.296;2023-05-10T12:45:54;3.25;;;2.42;;
55063;SDS011;40963;52.168;21.296;2023-05-10T12:48:20;3.15;;;1.90;;
55063;SDS011;40963;52.168;21.296;2023-05-10T12:50:46;10.18;;;2.28;;
55063;SDS011;40963;52.168;21.296;2023-05-10T12:53:15;4.32;;;2.20;;
55063;SDS011;40963;52.168;21.296;2023-05-10T12:55:41;8.30;;;2.33;;
55063;SDS011;40963;52.168;21.296;2023-05-10T12:58:07;5.47;;;2.60;;
55063;SDS011;40963;52.168;21.296;2023-05-10T13:00:33;7.18;;;2.33;;
55063;SDS011;40963;52.168;21.296;2023-05-10T13:02:59;8.82;;;2.05;;
55063;SDS011;40963;52.168;21.296;2023-05-10T13:05:25;2.33;;;1.90;;
55063;SDS011;40963;52.168;21.296;2023-05-10T13:07:50;3.65;;;1.83;;
55063;SDS011;40963;52.168;21.296;2023-05-10T13:10:16;1.98;;;1.77;;
55063;SDS011;40963;52.168;21.296;2023-05-10T13:12:42;7.78;;;2.20;;
55063;SDS011;40963;52.168;21.296;2023-05-10T13:15:07;4.70;;;1.88;;
55063;SDS011;40963;52.168;21.296;2023-05-10T13:17:33;4.80;;;2.22;;
55063;SDS011;40963;52.168;21.296;2023-05-10T13:19:59;7.13;;;2.13;;
55063;SDS011;40963;52.168;21.296;2023-05-10T13:22:25;2.17;;;1.60;;
55063;SDS011;40963;52.168;21.296;2023-05-10T13:24:50;5.07;;;1.70;;
55063;SDS011;40963;52.168;21.296;2023-05-10T13:27:16;3.03;;;2.10;;
55063;SDS011;40963;52.168;21.296;2023-05-10T13:29:41;5.03;;;2.03;;
55063;SDS011;40963;52.168;21.296;2023-05-10T13:32:07;4.63;;;2.15;;
55063;SDS011;40963;52.168;21.296;2023-05-10T13:34:33;1.90;;;1.48;;
55063;SDS011;40963;52.168;21.296;2023-05-10T13:37:00;6.88;;;1.65;;
55063;SDS011;40963;52.168;21.296;2023-05-10T13:39:26;4.93;;;1.90;;
55063;SDS011;40963;52.168;21.296;2023-05-10T13:41:52;5.20;;;1.50;;
55063;SDS011;40963;52.168;21.296;2023-05-10T13:44:17;10.13;;;1.85;;
55063;SDS011;40963;52.168;21.296;2023-05-10T13:46:43;1.85;;;1.65;;
55063;SDS011;40963;52.168;21.296;2023-05-10T13:49:09;1.88;;;1.73;;
55063;SDS011;40963;52.168;21.296;2023-05-10T13:51:35;5.45;;;1.60;;
55063;SDS011;40963;52.168;21.296;2023-05-10T13:54:01;1.55;;;1.40;;
55063;SDS011;40963;52.168;21.296;2023-05-10T13:56:27;4.15;;;2.03;;
55063;SDS011;40963;52.168;21.296;2023-05-10T13:58:53;10.02;;;2.03;;
55063;SDS011;40963;52.168;21.296;2023-05-10T14:01:18;2.25;;;2.00;;
55063;SDS011;40963;52.168;21.296;2023-05-10T14:03:44;9.07;;;1.80;;
55063;SDS011;40963;52.168;21.296;2023-05-10T14:06:10;5.65;;;1.92;;
55063;SDS011;40963;52.168;21.296;2023-05-10T14:08:35;12.20;;;1.90;;
55063;SDS011;40963;52.168;21.296;2023-05-10T14:11:01;7.43;;;2.15;;
55063;SDS011;40963;52.168;21.296;2023-05-10T14:13:27;2.42;;;1.75;;
55063;SDS011;40963;52.168;21.296;2023-05-10T14:15:53;3.10;;;1.65;;
55063;SDS011;40963;52.168;21.296;2023-05-10T14:18:19;5.85;;;1.98;;
55063;SDS011;40963;52.168;21.296;2023-05-10T14:20:45;10.23;;;1.98;;
55063;SDS011;40963;52.168;21.296;2023-05-10T14:23:11;3.10;;;1.70;;
55063;SDS011;40963;52.168;21.296;2023-05-10T14:25:37;5.32;;;1.70;;
55063;SDS011;40963;52.168;21.296;2023-05-10T14:28:05;7.90;;;2.00;;
55063;SDS011;40963;52.168;21.296;2023-05-10T14:30:31;3.67;;;2.03;;
55063;SDS011;40963;52.168;21.296;2023-05-10T14:32:56;6.22;;;1.83;;
55063;SDS011;40963;52.168;21.296;2023-05-10T14:35:23;6.25;;;2.05;;
55063;SDS011;40963;52.168;21.296;2023-05-10T14:37:48;7.63;;;1.70;;
55063;SDS011;40963;52.168;21.296;2023-05-10T14:40:14;9.27;;;2.05;;
55063;SDS011;40963;52.168;21.296;2023-05-10T14:42:40;9.27;;;1.90;;
55063;SDS011;40963;52.168;21.296;2023-05-10T14:45:07;12.82;;;1.77;;
55063;SDS011;40963;52.168;21.296;2023-05-10T14:47:33;5.15;;;1.75;;
55063;SDS011;40963;52.168;21.296;2023-05-10T14:49:59;3.67;;;1.50;;
55063;SDS011;40963;52.168;21.296;2023-05-10T14:52:25;1.77;;;1.50;;
55063;SDS011;40963;52.168;21.296;2023-05-10T14:54:50;3.97;;;1.90;;
55063;SDS011;40963;52.168;21.296;2023-05-10T14:57:16;3.95;;;2.00;;
55063;SDS011;40963;52.168;21.296;2023-05-10T14:59:42;7.05;;;2.13;;
55063;SDS011;40963;52.168;21.296;2023-05-10T15:02:07;5.38;;;1.83;;
55063;SDS011;40963;52.168;21.296;2023-05-10T15:04:33;12.32;;;1.90;;
55063;SDS011;40963;52.168;21.296;2023-05-10T15:06:58;3.17;;;2.25;;
55063;SDS011;40963;52.168;21.296;2023-05-10T15:09:24;8.73;;;1.95;;